sensor_id;sensor_type;location;lat;lon;timestamp;P1;durP1;ratioP1;P2;durP2;ratioP2
42876;SDS011;42341;40.498;72.818;2023-02-19T00:01:40;165.70;;;75.25;;
42876;SDS011;42341;40.498;72.818;2023-02-19T00:04:17;153.02;;;70.50;;
42876;SDS011;42341;40.498;72.818;2023-02-19T00:06:46;160.40;;;72.90;;
42876;SDS011;42341;40.498;72.818;2023-02-19T00:09:13;153.68;;;73.63;;
42876;SDS011;42341;40.498;72.818;2023-02-19T00:11:41;147.20;;;70.78;;
42876;SDS011;42341;40.498;72.818;2023-02-19T00:14:07;150.57;;;70.38;;
42876;SDS011;42341;40.498;72.818;2023-02-19T00:16:36;156.50;;;69.05;;
42876;SDS011;42341;40.498;72.818;2023-02-19T00:19:04;156.98;;;70.93;;
42876;SDS011;42341;40.498;72.818;2023-02-19T00:21:31;158.90;;;73.38;;
42876;SDS011;42341;40.498;72.818;2023-02-19T00:23:58;175.43;;;82.53;;
42876;SDS011;42341;40.498;72.818;2023-02-19T00:26:26;173.75;;;80.97;;
42876;SDS011;42341;40.498;72.818;2023-02-19T00:28:53;169.35;;;81.40;;
42876;SDS011;42341;40.498;72.818;2023-02-19T00:31:25;171.73;;;79.47;;
42876;SDS011;42341;40.498;72.818;2023-02-19T00:33:54;166.40;;;79.07;;
42876;SDS011;42341;40.498;72.818;2023-02-19T00:36:22;166.95;;;76.95;;
42876;SDS011;42341;40.498;72.818;2023-02-19T00:38:49;170.23;;;81.75;;
42876;SDS011;42341;40.498;72.818;2023-02-19T00:41:15;168.50;;;80.13;;
42876;SDS011;42341;40.498;72.818;2023-02-19T00:46:19;179.55;;;88.15;;
42876;SDS011;42341;40.498;72.818;2023-02-19T00:48:55;177.10;;;86.75;;
42876;SDS011;42341;40.498;72.818;2023-02-19T00:51:23;179.20;;;84.88;;
42876;SDS011;42341;40.498;72.818;2023-02-19T00:53:51;179.52;;;86.32;;
42876;SDS011;42341;40.498;72.818;2023-02-19T00:56:17;237.65;;;114.80;;
42876;SDS011;42341;40.498;72.818;2023-02-19T00:58:44;208.20;;;98.57;;
42876;SDS011;42341;40.498;72.818;2023-02-19T01:01:10;205.63;;;100.90;;
42876;SDS011;42341;40.498;72.818;2023-02-19T01:03:37;214.15;;;102.55;;
42876;SDS011;42341;40.498;72.818;2023-02-19T01:06:03;236.13;;;110.97;;
42876;SDS011;42341;40.498;72.818;2023-02-19T01:08:31;274.60;;;125.50;;
42876;SDS011;42341;40.498;72.818;2023-02-19T01:10:58;246.00;;;112.07;;
42876;SDS011;42341;40.498;72.818;2023-02-19T01:13:24;205.02;;;95.03;;
42876;SDS011;42341;40.498;72.818;2023-02-19T01:15:50;192.25;;;93.60;;
42876;SDS011;42341;40.498;72.818;2023-02-19T01:18:16;211.18;;;97.72;;
42876;SDS011;42341;40.498;72.818;2023-02-19T01:20:43;211.18;;;97.85;;
42876;SDS011;42341;40.498;72.818;2023-02-19T01:23:10;211.90;;;98.68;;
42876;SDS011;42341;40.498;72.818;2023-02-19T01:25:37;197.65;;;93.70;;
42876;SDS011;42341;40.498;72.818;2023-02-19T01:28:04;202.77;;;96.80;;
42876;SDS011;42341;40.498;72.818;2023-02-19T01:30:35;198.70;;;94.28;;
42876;SDS011;42341;40.498;72.818;2023-02-19T01:33:02;189.82;;;92.45;;
42876;SDS011;42341;40.498;72.818;2023-02-19T01:35:32;209.15;;;96.72;;
42876;SDS011;42341;40.498;72.818;2023-02-19T01:37:58;209.55;;;101.15;;
42876;SDS011;42341;40.498;72.818;2023-02-19T01:40:24;224.02;;;109.25;;
42876;SDS011;42341;40.498;72.818;2023-02-19T01:42:50;234.07;;;115.28;;
42876;SDS011;42341;40.498;72.818;2023-02-19T01:45:24;232.65;;;110.95;;
42876;SDS011;42341;40.498;72.818;2023-02-19T01:47:54;244.43;;;123.63;;
42876;SDS011;42341;40.498;72.818;2023-02-19T01:50:46;288.35;;;142.07;;
42876;SDS011;42341;40.498;72.818;2023-02-19T01:53:17;265.52;;;137.00;;
42876;SDS011;42341;40.498;72.818;2023-02-19T01:55:47;256.42;;;130.63;;
42876;SDS011;42341;40.498;72.818;2023-02-19T01:58:17;244.27;;;124.10;;
42876;SDS011;42341;40.498;72.818;2023-02-19T02:00:43;208.90;;;100.55;;
42876;SDS011;42341;40.498;72.818;2023-02-19T02:03:09;201.93;;;96.05;;
42876;SDS011;42341;40.498;72.818;2023-02-19T02:05:41;191.45;;;94.97;;
42876;SDS011;42341;40.498;72.818;2023-02-19T02:08:18;200.73;;;99.28;;
42876;SDS011;42341;40.498;72.818;2023-02-19T02:11:03;215.05;;;108.82;;
42876;SDS011;42341;40.498;72.818;2023-02-19T02:13:29;210.00;;;104.93;;
42876;SDS011;42341;40.498;72.818;2023-02-19T02:19:12;199.88;;;96.70;;
42876;SDS011;42341;40.498;72.818;2023-02-19T02:27:27;207.35;;;102.88;;
42876;SDS011;42341;40.498;72.818;2023-02-19T02:38:15;213.23;;;111.13;;
42876;SDS011;42341;40.498;72.818;2023-02-19T02:40:44;224.55;;;116.00;;
42876;SDS011;42341;40.498;72.818;2023-02-19T02:43:11;220.55;;;113.20;;
42876;SDS011;42341;40.498;72.818;2023-02-19T02:45:37;210.15;;;112.88;;
42876;SDS011;42341;40.498;72.818;2023-02-19T02:50:32;219.43;;;118.13;;
42876;SDS011;42341;40.498;72.818;2023-02-19T02:53:07;218.13;;;114.95;;
42876;SDS011;42341;40.498;72.818;2023-02-19T02:55:56;220.15;;;119.32;;
42876;SDS011;42341;40.498;72.818;2023-02-19T02:58:24;223.38;;;119.97;;
42876;SDS011;42341;40.498;72.818;2023-02-19T03:00:53;240.55;;;127.57;;
42876;SDS011;42341;40.498;72.818;2023-02-19T03:03:42;372.15;;;195.27;;
42876;SDS011;42341;40.498;72.818;2023-02-19T03:06:12;303.27;;;155.90;;
42876;SDS011;42341;40.498;72.818;2023-02-19T03:08:44;285.50;;;145.82;;
42876;SDS011;42341;40.498;72.818;2023-02-19T03:11:19;300.30;;;161.63;;
42876;SDS011;42341;40.498;72.818;2023-02-19T03:14:17;308.00;;;174.52;;
42876;SDS011;42341;40.498;72.818;2023-02-19T03:17:08;348.55;;;194.52;;
42876;SDS011;42341;40.498;72.818;2023-02-19T03:19:57;333.92;;;182.35;;
42876;SDS011;42341;40.498;72.818;2023-02-19T03:22:26;313.05;;;175.23;;
42876;SDS011;42341;40.498;72.818;2023-02-19T03:24:59;309.02;;;178.88;;
42876;SDS011;42341;40.498;72.818;2023-02-19T03:27:47;349.60;;;202.68;;
42876;SDS011;42341;40.498;72.818;2023-02-19T03:30:19;352.30;;;208.77;;
42876;SDS011;42341;40.498;72.818;2023-02-19T03:32:50;365.30;;;210.88;;
42876;SDS011;42341;40.498;72.818;2023-02-19T03:35:34;345.13;;;185.88;;
42876;SDS011;42341;40.498;72.818;2023-02-19T03:38:13;295.25;;;159.73;;
42876;SDS011;42341;40.498;72.818;2023-02-19T03:41:02;270.98;;;147.05;;
42876;SDS011;42341;40.498;72.818;2023-02-19T03:43:51;267.10;;;151.13;;
42876;SDS011;42341;40.498;72.818;2023-02-19T03:49:03;295.50;;;154.15;;
42876;SDS011;42341;40.498;72.818;2023-02-19T03:51:56;317.10;;;175.57;;
42876;SDS011;42341;40.498;72.818;2023-02-19T03:54:41;265.45;;;146.23;;
42876;SDS011;42341;40.498;72.818;2023-02-19T04:00:15;256.90;;;140.85;;
42876;SDS011;42341;40.498;72.818;2023-02-19T04:02:52;246.30;;;133.80;;
42876;SDS011;42341;40.498;72.818;2023-02-19T04:05:31;235.57;;;130.25;;
42876;SDS011;42341;40.498;72.818;2023-02-19T04:08:03;246.95;;;139.73;;
42876;SDS011;42341;40.498;72.818;2023-02-19T04:10:33;307.17;;;172.52;;
42876;SDS011;42341;40.498;72.818;2023-02-19T04:13:08;274.77;;;152.60;;
42876;SDS011;42341;40.498;72.818;2023-02-19T04:15:57;252.80;;;137.63;;
42876;SDS011;42341;40.498;72.818;2023-02-19T04:20:55;313.15;;;163.05;;
42876;SDS011;42341;40.498;72.818;2023-02-19T04:23:24;224.05;;;120.40;;
42876;SDS011;42341;40.498;72.818;2023-02-19T04:25:54;190.80;;;104.70;;
42876;SDS011;42341;40.498;72.818;2023-02-19T04:28:23;173.10;;;89.75;;
42876;SDS011;42341;40.498;72.818;2023-02-19T04:30:49;179.00;;;94.22;;
42876;SDS011;42341;40.498;72.818;2023-02-19T04:33:15;137.18;;;79.07;;
42876;SDS011;42341;40.498;72.818;2023-02-19T04:35:41;118.00;;;69.40;;
42876;SDS011;42341;40.498;72.818;2023-02-19T04:38:07;125.07;;;71.07;;
42876;SDS011;42341;40.498;72.818;2023-02-19T04:40:32;128.45;;;70.82;;
42876;SDS011;42341;40.498;72.818;2023-02-19T04:42:58;132.35;;;76.80;;
42876;SDS011;42341;40.498;72.818;2023-02-19T04:45:24;148.95;;;89.22;;
42876;SDS011;42341;40.498;72.818;2023-02-19T04:47:50;163.57;;;103.05;;
42876;SDS011;42341;40.498;72.818;2023-02-19T04:50:16;163.35;;;100.18;;
42876;SDS011;42341;40.498;72.818;2023-02-19T04:52:42;148.43;;;91.97;;
42876;SDS011;42341;40.498;72.818;2023-02-19T04:55:08;123.90;;;76.43;;
42876;SDS011;42341;40.498;72.818;2023-02-19T04:57:34;121.55;;;68.68;;
42876;SDS011;42341;40.498;72.818;2023-02-19T05:00:00;117.40;;;66.22;;
42876;SDS011;42341;40.498;72.818;2023-02-19T05:02:27;128.80;;;74.85;;
42876;SDS011;42341;40.498;72.818;2023-02-19T05:04:53;134.30;;;76.55;;
42876;SDS011;42341;40.498;72.818;2023-02-19T05:07:19;143.77;;;79.45;;
42876;SDS011;42341;40.498;72.818;2023-02-19T05:09:45;141.77;;;77.72;;
42876;SDS011;42341;40.498;72.818;2023-02-19T05:12:11;138.27;;;79.90;;
42876;SDS011;42341;40.498;72.818;2023-02-19T05:14:36;125.68;;;71.47;;
42876;SDS011;42341;40.498;72.818;2023-02-19T05:17:02;135.48;;;75.78;;
42876;SDS011;42341;40.498;72.818;2023-02-19T05:19:28;125.07;;;72.93;;
42876;SDS011;42341;40.498;72.818;2023-02-19T05:21:54;121.45;;;70.43;;
42876;SDS011;42341;40.498;72.818;2023-02-19T05:24:20;119.85;;;68.05;;
42876;SDS011;42341;40.498;72.818;2023-02-19T05:26:48;120.82;;;70.25;;
42876;SDS011;42341;40.498;72.818;2023-02-19T05:29:14;116.50;;;66.55;;
42876;SDS011;42341;40.498;72.818;2023-02-19T05:31:40;111.70;;;66.50;;
42876;SDS011;42341;40.498;72.818;2023-02-19T05:34:06;121.55;;;70.03;;
42876;SDS011;42341;40.498;72.818;2023-02-19T05:36:32;104.65;;;59.97;;
42876;SDS011;42341;40.498;72.818;2023-02-19T05:38:58;101.43;;;56.15;;
42876;SDS011;42341;40.498;72.818;2023-02-19T05:41:27;107.78;;;63.08;;
42876;SDS011;42341;40.498;72.818;2023-02-19T05:43:54;114.28;;;65.53;;
42876;SDS011;42341;40.498;72.818;2023-02-19T05:46:22;105.60;;;62.42;;
42876;SDS011;42341;40.498;72.818;2023-02-19T05:48:50;109.40;;;63.28;;
42876;SDS011;42341;40.498;72.818;2023-02-19T05:51:18;98.97;;;58.45;;
42876;SDS011;42341;40.498;72.818;2023-02-19T05:53:45;102.18;;;60.20;;
42876;SDS011;42341;40.498;72.818;2023-02-19T05:59:01;101.50;;;57.45;;
42876;SDS011;42341;40.498;72.818;2023-02-19T06:01:30;92.38;;;52.80;;
42876;SDS011;42341;40.498;72.818;2023-02-19T06:03:56;86.85;;;50.83;;
42876;SDS011;42341;40.498;72.818;2023-02-19T06:06:22;155.93;;;58.58;;
42876;SDS011;42341;40.498;72.818;2023-02-19T06:08:49;91.97;;;53.88;;
42876;SDS011;42341;40.498;72.818;2023-02-19T06:11:16;92.10;;;53.30;;
42876;SDS011;42341;40.498;72.818;2023-02-19T06:13:42;86.70;;;50.92;;
42876;SDS011;42341;40.498;72.818;2023-02-19T06:16:09;82.75;;;49.15;;
42876;SDS011;42341;40.498;72.818;2023-02-19T06:18:35;68.30;;;42.85;;
42876;SDS011;42341;40.498;72.818;2023-02-19T06:21:02;82.75;;;49.50;;
42876;SDS011;42341;40.498;72.818;2023-02-19T06:23:29;62.65;;;40.00;;
42876;SDS011;42341;40.498;72.818;2023-02-19T06:26:10;64.97;;;40.97;;
42876;SDS011;42341;40.498;72.818;2023-02-19T06:28:37;64.50;;;39.35;;
42876;SDS011;42341;40.498;72.818;2023-02-19T06:31:04;72.75;;;40.00;;
42876;SDS011;42341;40.498;72.818;2023-02-19T06:33:30;87.82;;;41.90;;
42876;SDS011;42341;40.498;72.818;2023-02-19T06:35:58;108.68;;;60.13;;
42876;SDS011;42341;40.498;72.818;2023-02-19T06:38:24;78.88;;;40.63;;
42876;SDS011;42341;40.498;72.818;2023-02-19T06:40:50;76.20;;;42.50;;
42876;SDS011;42341;40.498;72.818;2023-02-19T06:43:17;77.80;;;48.15;;
42876;SDS011;42341;40.498;72.818;2023-02-19T06:45:43;73.40;;;43.58;;
42876;SDS011;42341;40.498;72.818;2023-02-19T06:48:09;72.32;;;43.38;;
42876;SDS011;42341;40.498;72.818;2023-02-19T06:50:35;75.00;;;42.45;;
42876;SDS011;42341;40.498;72.818;2023-02-19T06:53:01;65.28;;;38.50;;
42876;SDS011;42341;40.498;72.818;2023-02-19T06:55:28;68.45;;;41.03;;
42876;SDS011;42341;40.498;72.818;2023-02-19T06:57:54;78.28;;;45.03;;
42876;SDS011;42341;40.498;72.818;2023-02-19T07:00:20;76.60;;;44.00;;
42876;SDS011;42341;40.498;72.818;2023-02-19T07:02:46;89.28;;;47.90;;
42876;SDS011;42341;40.498;72.818;2023-02-19T07:05:12;87.57;;;47.83;;
42876;SDS011;42341;40.498;72.818;2023-02-19T07:07:38;78.10;;;44.63;;
42876;SDS011;42341;40.498;72.818;2023-02-19T07:10:05;74.28;;;41.17;;
42876;SDS011;42341;40.498;72.818;2023-02-19T07:12:31;75.57;;;43.38;;
42876;SDS011;42341;40.498;72.818;2023-02-19T07:14:57;110.25;;;56.63;;
42876;SDS011;42341;40.498;72.818;2023-02-19T07:17:23;76.50;;;43.25;;
42876;SDS011;42341;40.498;72.818;2023-02-19T07:19:49;69.25;;;39.60;;
42876;SDS011;42341;40.498;72.818;2023-02-19T07:22:16;63.35;;;36.70;;
42876;SDS011;42341;40.498;72.818;2023-02-19T07:24:42;65.18;;;39.22;;
42876;SDS011;42341;40.498;72.818;2023-02-19T07:27:08;72.28;;;39.67;;
42876;SDS011;42341;40.498;72.818;2023-02-19T07:29:34;66.25;;;36.47;;
42876;SDS011;42341;40.498;72.818;2023-02-19T07:32:00;61.63;;;35.38;;
42876;SDS011;42341;40.498;72.818;2023-02-19T07:34:26;66.88;;;38.50;;
42876;SDS011;42341;40.498;72.818;2023-02-19T07:36:53;56.10;;;34.70;;
42876;SDS011;42341;40.498;72.818;2023-02-19T07:39:19;68.93;;;39.25;;
42876;SDS011;42341;40.498;72.818;2023-02-19T07:41:45;59.70;;;34.55;;
42876;SDS011;42341;40.498;72.818;2023-02-19T07:44:11;60.42;;;34.35;;
42876;SDS011;42341;40.498;72.818;2023-02-19T07:46:40;93.05;;;50.67;;
42876;SDS011;42341;40.498;72.818;2023-02-19T07:49:06;89.53;;;50.97;;
42876;SDS011;42341;40.498;72.818;2023-02-19T07:51:33;88.15;;;50.45;;
42876;SDS011;42341;40.498;72.818;2023-02-19T07:53:59;103.85;;;54.72;;
42876;SDS011;42341;40.498;72.818;2023-02-19T07:56:25;105.85;;;54.42;;
42876;SDS011;42341;40.498;72.818;2023-02-19T07:58:53;116.07;;;54.00;;
42876;SDS011;42341;40.498;72.818;2023-02-19T08:01:20;106.35;;;54.08;;
42876;SDS011;42341;40.498;72.818;2023-02-19T08:04:10;122.88;;;54.20;;
42876;SDS011;42341;40.498;72.818;2023-02-19T08:06:36;99.18;;;51.28;;
42876;SDS011;42341;40.498;72.818;2023-02-19T08:09:03;100.25;;;51.35;;
42876;SDS011;42341;40.498;72.818;2023-02-19T08:11:29;113.78;;;54.35;;
42876;SDS011;42341;40.498;72.818;2023-02-19T08:14:14;108.32;;;58.08;;
42876;SDS011;42341;40.498;72.818;2023-02-19T08:16:46;91.82;;;51.85;;
42876;SDS011;42341;40.498;72.818;2023-02-19T08:19:13;97.00;;;53.42;;
42876;SDS011;42341;40.498;72.818;2023-02-19T08:21:39;104.90;;;55.70;;
42876;SDS011;42341;40.498;72.818;2023-02-19T08:24:05;110.63;;;58.60;;
42876;SDS011;42341;40.498;72.818;2023-02-19T08:26:31;110.50;;;57.08;;
42876;SDS011;42341;40.498;72.818;2023-02-19T08:28:58;105.85;;;55.42;;
42876;SDS011;42341;40.498;72.818;2023-02-19T08:31:24;110.88;;;56.63;;
42876;SDS011;42341;40.498;72.818;2023-02-19T08:33:51;97.38;;;53.90;;
42876;SDS011;42341;40.498;72.818;2023-02-19T08:36:17;98.10;;;54.95;;
42876;SDS011;42341;40.498;72.818;2023-02-19T08:38:44;101.80;;;53.65;;
42876;SDS011;42341;40.498;72.818;2023-02-19T08:41:10;100.13;;;52.85;;
42876;SDS011;42341;40.498;72.818;2023-02-19T08:43:37;99.65;;;53.63;;
42876;SDS011;42341;40.498;72.818;2023-02-19T08:46:04;96.13;;;53.70;;
42876;SDS011;42341;40.498;72.818;2023-02-19T08:48:31;101.88;;;52.15;;
42876;SDS011;42341;40.498;72.818;2023-02-19T08:50:59;93.85;;;53.15;;
42876;SDS011;42341;40.498;72.818;2023-02-19T08:53:28;98.05;;;55.70;;
42876;SDS011;42341;40.498;72.818;2023-02-19T08:55:54;102.47;;;58.92;;
42876;SDS011;42341;40.498;72.818;2023-02-19T08:58:20;113.60;;;63.85;;
42876;SDS011;42341;40.498;72.818;2023-02-19T09:00:46;102.35;;;57.72;;
42876;SDS011;42341;40.498;72.818;2023-02-19T09:03:13;100.13;;;54.80;;
42876;SDS011;42341;40.498;72.818;2023-02-19T09:05:39;98.47;;;53.65;;
42876;SDS011;42341;40.498;72.818;2023-02-19T09:08:06;118.75;;;60.80;;
42876;SDS011;42341;40.498;72.818;2023-02-19T09:10:32;100.82;;;59.08;;
42876;SDS011;42341;40.498;72.818;2023-02-19T09:12:58;96.47;;;56.60;;
42876;SDS011;42341;40.498;72.818;2023-02-19T09:15:26;83.53;;;53.03;;
42876;SDS011;42341;40.498;72.818;2023-02-19T09:17:53;82.85;;;51.90;;
42876;SDS011;42341;40.498;72.818;2023-02-19T09:20:19;76.85;;;48.95;;
42876;SDS011;42341;40.498;72.818;2023-02-19T09:22:46;101.78;;;59.28;;
42876;SDS011;42341;40.498;72.818;2023-02-19T09:25:12;97.47;;;56.50;;
42876;SDS011;42341;40.498;72.818;2023-02-19T09:27:38;103.00;;;56.83;;
42876;SDS011;42341;40.498;72.818;2023-02-19T09:30:04;111.88;;;65.15;;
42876;SDS011;42341;40.498;72.818;2023-02-19T09:32:31;102.60;;;60.35;;
42876;SDS011;42341;40.498;72.818;2023-02-19T09:34:57;94.70;;;57.53;;
42876;SDS011;42341;40.498;72.818;2023-02-19T09:37:26;110.30;;;58.60;;
42876;SDS011;42341;40.498;72.818;2023-02-19T09:39:53;104.07;;;58.00;;
42876;SDS011;42341;40.498;72.818;2023-02-19T09:42:21;124.93;;;62.65;;
42876;SDS011;42341;40.498;72.818;2023-02-19T09:44:49;79.63;;;47.72;;
42876;SDS011;42341;40.498;72.818;2023-02-19T09:47:22;107.95;;;58.42;;
42876;SDS011;42341;40.498;72.818;2023-02-19T09:49:56;105.90;;;58.80;;
42876;SDS011;42341;40.498;72.818;2023-02-19T09:54:53;101.85;;;58.42;;
42876;SDS011;42341;40.498;72.818;2023-02-19T09:57:22;97.57;;;52.42;;
42876;SDS011;42341;40.498;72.818;2023-02-19T09:59:52;97.70;;;55.38;;
42876;SDS011;42341;40.498;72.818;2023-02-19T10:02:19;80.70;;;48.90;;
42876;SDS011;42341;40.498;72.818;2023-02-19T10:04:46;91.95;;;51.35;;
42876;SDS011;42341;40.498;72.818;2023-02-19T10:07:14;92.97;;;50.47;;
42876;SDS011;42341;40.498;72.818;2023-02-19T10:09:40;78.07;;;46.60;;
42876;SDS011;42341;40.498;72.818;2023-02-19T10:12:12;73.00;;;44.10;;
42876;SDS011;42341;40.498;72.818;2023-02-19T10:14:41;67.78;;;44.38;;
42876;SDS011;42341;40.498;72.818;2023-02-19T10:17:12;76.50;;;46.80;;
42876;SDS011;42341;40.498;72.818;2023-02-19T10:19:42;77.75;;;47.95;;
42876;SDS011;42341;40.498;72.818;2023-02-19T10:22:09;71.90;;;47.03;;
42876;SDS011;42341;40.498;72.818;2023-02-19T10:24:37;84.47;;;51.20;;
42876;SDS011;42341;40.498;72.818;2023-02-19T10:27:08;108.15;;;50.50;;
42876;SDS011;42341;40.498;72.818;2023-02-19T10:29:35;73.70;;;39.97;;
42876;SDS011;42341;40.498;72.818;2023-02-19T10:32:11;67.13;;;42.42;;
42876;SDS011;42341;40.498;72.818;2023-02-19T10:34:37;61.42;;;39.88;;
42876;SDS011;42341;40.498;72.818;2023-02-19T10:37:04;59.88;;;36.97;;
42876;SDS011;42341;40.498;72.818;2023-02-19T10:39:52;56.17;;;37.47;;
42876;SDS011;42341;40.498;72.818;2023-02-19T10:42:20;66.60;;;39.38;;
42876;SDS011;42341;40.498;72.818;2023-02-19T10:44:55;55.25;;;35.72;;
42876;SDS011;42341;40.498;72.818;2023-02-19T10:47:24;57.42;;;37.40;;
42876;SDS011;42341;40.498;72.818;2023-02-19T10:49:51;58.80;;;36.10;;
42876;SDS011;42341;40.498;72.818;2023-02-19T10:52:23;62.35;;;37.22;;
42876;SDS011;42341;40.498;72.818;2023-02-19T10:54:57;72.88;;;43.88;;
42876;SDS011;42341;40.498;72.818;2023-02-19T10:57:38;116.90;;;65.93;;
42876;SDS011;42341;40.498;72.818;2023-02-19T11:02:40;118.25;;;68.03;;
42876;SDS011;42341;40.498;72.818;2023-02-19T11:07:46;126.25;;;68.22;;
42876;SDS011;42341;40.498;72.818;2023-02-19T11:13:25;103.20;;;61.88;;
42876;SDS011;42341;40.498;72.818;2023-02-19T11:15:55;111.95;;;65.35;;
42876;SDS011;42341;40.498;72.818;2023-02-19T11:18:25;121.60;;;66.03;;
42876;SDS011;42341;40.498;72.818;2023-02-19T11:24:03;124.43;;;66.68;;
42876;SDS011;42341;40.498;72.818;2023-02-19T11:26:23;140.68;;;80.43;;
42876;SDS011;42341;40.498;72.818;2023-02-19T11:28:56;126.70;;;75.00;;
42876;SDS011;42341;40.498;72.818;2023-02-19T11:31:24;118.13;;;72.70;;
42876;SDS011;42341;40.498;72.818;2023-02-19T11:36:27;134.23;;;72.85;;
42876;SDS011;42341;40.498;72.818;2023-02-19T11:38:54;119.40;;;68.20;;
42876;SDS011;42341;40.498;72.818;2023-02-19T11:41:40;112.47;;;66.93;;
42876;SDS011;42341;40.498;72.818;2023-02-19T11:49:27;145.82;;;75.53;;
42876;SDS011;42341;40.498;72.818;2023-02-19T11:52:05;128.38;;;71.20;;
42876;SDS011;42341;40.498;72.818;2023-02-19T11:54:51;123.93;;;68.00;;
42876;SDS011;42341;40.498;72.818;2023-02-19T11:57:33;130.73;;;70.30;;
42876;SDS011;42341;40.498;72.818;2023-02-19T12:05:19;136.63;;;70.72;;
42876;SDS011;42341;40.498;72.818;2023-02-19T12:07:57;149.95;;;72.90;;
42876;SDS011;42341;40.498;72.818;2023-02-19T12:21:01;143.02;;;80.25;;
42876;SDS011;42341;40.498;72.818;2023-02-19T12:23:33;154.25;;;80.90;;
42876;SDS011;42341;40.498;72.818;2023-02-19T12:29:00;161.25;;;83.20;;
42876;SDS011;42341;40.498;72.818;2023-02-19T12:36:32;213.45;;;108.15;;
42876;SDS011;42341;40.498;72.818;2023-02-19T12:41:35;208.77;;;109.88;;
42876;SDS011;42341;40.498;72.818;2023-02-19T12:44:08;193.85;;;105.25;;
42876;SDS011;42341;40.498;72.818;2023-02-19T12:46:41;178.95;;;98.20;;
42876;SDS011;42341;40.498;72.818;2023-02-19T12:51:54;183.63;;;98.68;;
42876;SDS011;42341;40.498;72.818;2023-02-19T12:54:26;187.05;;;98.95;;
42876;SDS011;42341;40.498;72.818;2023-02-19T13:01:53;219.30;;;107.40;;
42876;SDS011;42341;40.498;72.818;2023-02-19T13:07:08;208.13;;;114.60;;
42876;SDS011;42341;40.498;72.818;2023-02-19T13:09:38;234.13;;;117.07;;
42876;SDS011;42341;40.498;72.818;2023-02-19T13:12:10;224.55;;;119.00;;
42876;SDS011;42341;40.498;72.818;2023-02-19T13:14:42;229.30;;;118.85;;
42876;SDS011;42341;40.498;72.818;2023-02-19T13:19:36;242.35;;;126.28;;
42876;SDS011;42341;40.498;72.818;2023-02-19T13:22:14;231.98;;;122.10;;
42876;SDS011;42341;40.498;72.818;2023-02-19T13:24:59;255.38;;;132.40;;
42876;SDS011;42341;40.498;72.818;2023-02-19T13:27:42;271.17;;;144.65;;
42876;SDS011;42341;40.498;72.818;2023-02-19T13:38:30;359.35;;;189.07;;
42876;SDS011;42341;40.498;72.818;2023-02-19T13:40:57;380.30;;;205.00;;
42876;SDS011;42341;40.498;72.818;2023-02-19T13:43:25;400.00;;;212.27;;
42876;SDS011;42341;40.498;72.818;2023-02-19T13:45:59;322.52;;;170.57;;
42876;SDS011;42341;40.498;72.818;2023-02-19T13:48:28;316.40;;;159.82;;
42876;SDS011;42341;40.498;72.818;2023-02-19T13:51:45;285.60;;;151.07;;
42876;SDS011;42341;40.498;72.818;2023-02-19T14:04:19;348.02;;;195.68;;
42876;SDS011;42341;40.498;72.818;2023-02-19T14:17:00;255.82;;;143.30;;
42876;SDS011;42341;40.498;72.818;2023-02-19T14:24:54;244.00;;;133.18;;
42876;SDS011;42341;40.498;72.818;2023-02-19T14:27:20;262.50;;;147.45;;
42876;SDS011;42341;40.498;72.818;2023-02-19T14:29:46;263.67;;;148.40;;
42876;SDS011;42341;40.498;72.818;2023-02-19T14:32:17;319.25;;;163.48;;
42876;SDS011;42341;40.498;72.818;2023-02-19T14:34:44;289.20;;;153.50;;
42876;SDS011;42341;40.498;72.818;2023-02-19T14:37:14;292.70;;;165.25;;
42876;SDS011;42341;40.498;72.818;2023-02-19T14:39:43;304.80;;;171.13;;
42876;SDS011;42341;40.498;72.818;2023-02-19T14:42:16;337.60;;;189.50;;
42876;SDS011;42341;40.498;72.818;2023-02-19T14:47:18;323.58;;;181.20;;
42876;SDS011;42341;40.498;72.818;2023-02-19T14:49:46;416.30;;;218.80;;
42876;SDS011;42341;40.498;72.818;2023-02-19T14:52:24;374.88;;;197.65;;
42876;SDS011;42341;40.498;72.818;2023-02-19T14:57:19;389.63;;;211.25;;
42876;SDS011;42341;40.498;72.818;2023-02-19T14:59:52;387.17;;;215.18;;
42876;SDS011;42341;40.498;72.818;2023-02-19T15:02:19;406.08;;;228.07;;
42876;SDS011;42341;40.498;72.818;2023-02-19T15:04:45;376.02;;;211.18;;
42876;SDS011;42341;40.498;72.818;2023-02-19T15:07:13;320.05;;;185.02;;
42876;SDS011;42341;40.498;72.818;2023-02-19T15:09:41;338.70;;;190.43;;
42876;SDS011;42341;40.498;72.818;2023-02-19T15:12:13;306.67;;;178.95;;
42876;SDS011;42341;40.498;72.818;2023-02-19T15:14:39;358.08;;;200.90;;
42876;SDS011;42341;40.498;72.818;2023-02-19T15:17:06;313.83;;;182.63;;
42876;SDS011;42341;40.498;72.818;2023-02-19T15:19:33;309.05;;;172.88;;
42876;SDS011;42341;40.498;72.818;2023-02-19T15:22:00;292.60;;;162.70;;
42876;SDS011;42341;40.498;72.818;2023-02-19T15:24:27;333.52;;;191.50;;
42876;SDS011;42341;40.498;72.818;2023-02-19T15:26:53;328.52;;;189.60;;
42876;SDS011;42341;40.498;72.818;2023-02-19T15:29:23;326.10;;;183.05;;
42876;SDS011;42341;40.498;72.818;2023-02-19T15:34:17;326.92;;;187.40;;
42876;SDS011;42341;40.498;72.818;2023-02-19T15:36:44;327.50;;;185.38;;
42876;SDS011;42341;40.498;72.818;2023-02-19T15:39:13;406.48;;;234.00;;
42876;SDS011;42341;40.498;72.818;2023-02-19T15:41:42;460.17;;;252.82;;
42876;SDS011;42341;40.498;72.818;2023-02-19T15:44:24;480.60;;;254.27;;
42876;SDS011;42341;40.498;72.818;2023-02-19T15:46:52;484.77;;;258.83;;
42876;SDS011;42341;40.498;72.818;2023-02-19T15:49:22;447.08;;;246.90;;
42876;SDS011;42341;40.498;72.818;2023-02-19T15:52:05;423.35;;;234.10;;
42876;SDS011;42341;40.498;72.818;2023-02-19T15:54:33;390.00;;;212.18;;
42876;SDS011;42341;40.498;72.818;2023-02-19T15:57:02;353.75;;;203.85;;
42876;SDS011;42341;40.498;72.818;2023-02-19T16:02:00;345.10;;;194.25;;
42876;SDS011;42341;40.498;72.818;2023-02-19T16:04:28;347.35;;;196.18;;
42876;SDS011;42341;40.498;72.818;2023-02-19T16:07:01;354.67;;;196.75;;
42876;SDS011;42341;40.498;72.818;2023-02-19T16:11:55;328.48;;;181.93;;
42876;SDS011;42341;40.498;72.818;2023-02-19T16:14:29;337.05;;;180.23;;
42876;SDS011;42341;40.498;72.818;2023-02-19T16:16:57;314.92;;;171.27;;
42876;SDS011;42341;40.498;72.818;2023-02-19T16:19:27;309.52;;;162.95;;
42876;SDS011;42341;40.498;72.818;2023-02-19T16:21:54;314.17;;;171.00;;
42876;SDS011;42341;40.498;72.818;2023-02-19T16:24:25;316.15;;;175.68;;
42876;SDS011;42341;40.498;72.818;2023-02-19T16:26:52;349.38;;;188.18;;
42876;SDS011;42341;40.498;72.818;2023-02-19T16:29:20;343.98;;;188.48;;
42876;SDS011;42341;40.498;72.818;2023-02-19T16:31:54;325.08;;;180.98;;